createdAt,value
2022-11-15T00:00:33.678Z,8.30
2022-11-15T00:03:01.192Z,8.20
2022-11-15T00:05:29.387Z,8.20
2022-11-15T00:07:58.456Z,8.10
2022-11-15T00:10:25.404Z,8.10
2022-11-15T00:12:52.683Z,8.10
2022-11-15T00:15:19.526Z,8.10
2022-11-15T00:17:49.855Z,8.20
2022-11-15T00:20:17.017Z,8.20
2022-11-15T00:22:45.535Z,8.20
2022-11-15T00:25:12.470Z,8.10
2022-11-15T00:27:39.739Z,8.10
2022-11-15T00:30:07.605Z,8.10
2022-11-15T00:32:34.874Z,8.00
2022-11-15T00:35:01.827Z,8.00
2022-11-15T00:37:29.091Z,8.10
2022-11-15T00:39:57.270Z,8.00
2022-11-15T00:42:24.320Z,8.00
2022-11-15T00:44:51.206Z,8.00
2022-11-15T00:47:18.056Z,8.00
2022-11-15T00:49:44.916Z,8.00
2022-11-15T00:52:11.778Z,8.00
2022-11-15T00:54:38.661Z,8.00
2022-11-15T00:57:06.877Z,8.00
2022-11-15T00:59:33.813Z,7.90
2022-11-15T01:02:00.999Z,7.90
2022-11-15T01:04:28.402Z,7.90
2022-11-15T01:06:55.641Z,7.90
2022-11-15T01:09:22.593Z,7.90
2022-11-15T01:11:49.759Z,7.90
2022-11-15T01:14:22.829Z,7.90
2022-11-15T01:16:52.468Z,7.90
2022-11-15T01:19:19.535Z,7.90
2022-11-15T01:21:46.420Z,7.80
2022-11-15T01:24:14.010Z,7.80
2022-11-15T01:26:41.481Z,7.80
2022-11-15T01:29:08.450Z,7.90
2022-11-15T01:31:37.232Z,8.00
2022-11-15T01:34:04.154Z,7.80
2022-11-15T01:36:31.365Z,7.80
2022-11-15T01:38:59.498Z,7.80
2022-11-15T01:41:29.159Z,7.70
2022-11-15T01:43:58.363Z,7.70
2022-11-15T01:46:30.984Z,7.70
2022-11-15T01:49:02.895Z,7.70
2022-11-15T01:51:34.482Z,7.80
2022-11-15T01:54:06.063Z,7.70
2022-11-15T01:56:39.319Z,7.60
2022-11-15T01:59:09.022Z,7.60
2022-11-15T02:01:36.449Z,7.60
2022-11-15T02:04:10.955Z,7.60
2022-11-15T02:06:39.154Z,7.70
2022-11-15T02:09:06.155Z,7.70
2022-11-15T02:11:33.627Z,7.70
2022-11-15T02:14:02.133Z,7.60
2022-11-15T02:16:35.546Z,7.60
2022-11-15T02:19:14.874Z,7.60
2022-11-15T02:21:46.758Z,7.60
2022-11-15T02:24:45.789Z,7.60
2022-11-15T02:27:39.258Z,7.60
2022-11-15T02:30:26.015Z,7.60
2022-11-15T02:32:58.310Z,7.60
2022-11-15T02:35:35.994Z,7.70
2022-11-15T02:38:08.591Z,7.80
2022-11-15T02:40:43.084Z,7.80
2022-11-15T02:43:30.693Z,7.80
2022-11-15T02:46:06.491Z,7.80
2022-11-15T02:48:34.898Z,7.90
2022-11-15T02:51:03.183Z,7.80
2022-11-15T02:53:30.358Z,7.90
2022-11-15T02:55:59.403Z,7.90
2022-11-15T02:58:45.160Z,7.90
2022-11-15T03:01:22.869Z,7.90
2022-11-15T03:04:00.516Z,7.90
2022-11-15T03:06:37.024Z,7.90
2022-11-15T03:09:08.267Z,7.90
2022-11-15T03:11:38.619Z,8.00
2022-11-15T03:14:18.709Z,8.10
2022-11-15T03:16:52.201Z,8.10
2022-11-15T03:19:27.504Z,8.20
2022-11-15T03:21:56.578Z,8.30
2022-11-15T03:24:26.790Z,8.50
2022-11-15T03:26:55.831Z,8.50
2022-11-15T03:29:28.096Z,8.70
2022-11-15T03:32:04.288Z,8.80
2022-11-15T03:34:36.331Z,8.80
2022-11-15T03:37:03.877Z,8.80
2022-11-15T03:39:31.009Z,8.90
2022-11-15T03:42:08.180Z,9.00
2022-11-15T03:44:42.355Z,9.00
2022-11-15T03:47:17.486Z,9.10
2022-11-15T03:49:47.846Z,9.00
2022-11-15T03:52:19.850Z,9.00
2022-11-15T03:54:51.568Z,9.00
2022-11-15T03:57:18.992Z,9.00
2022-11-15T03:59:45.979Z,9.10
2022-11-15T04:02:14.961Z,9.10
2022-11-15T04:04:41.841Z,9.10
2022-11-15T04:07:09.084Z,9.10
2022-11-15T04:09:56.283Z,9.10
2022-11-15T04:12:32.695Z,9.00
2022-11-15T04:15:10.453Z,9.20
2022-11-15T04:17:41.361Z,9.00
2022-11-15T04:20:30.513Z,8.90
2022-11-15T04:23:17.541Z,9.00
2022-11-15T04:25:45.573Z,9.00
2022-11-15T04:28:13.271Z,8.90
2022-11-15T04:30:40.353Z,8.80
2022-11-15T04:33:08.752Z,8.90
2022-11-15T04:35:35.625Z,8.80
2022-11-15T04:38:04.363Z,8.70
2022-11-15T04:40:31.209Z,8.70
2022-11-15T04:43:03.672Z,8.70
2022-11-15T04:45:31.157Z,8.60
2022-11-15T04:47:58.254Z,8.60
2022-11-15T04:50:26.476Z,8.60
2022-11-15T04:53:00.141Z,8.60
2022-11-15T04:55:27.475Z,8.60
2022-11-15T04:58:02.102Z,8.60
2022-11-15T05:00:30.038Z,8.60
2022-11-15T05:03:16.659Z,8.50
2022-11-15T05:05:44.966Z,8.50
2022-11-15T05:08:12.216Z,8.50
2022-11-15T05:10:39.049Z,8.50
2022-11-15T05:13:06.340Z,8.50
2022-11-15T05:15:33.229Z,8.50
2022-11-15T05:18:01.733Z,8.50
2022-11-15T05:20:28.573Z,8.50
2022-11-15T05:22:57.266Z,8.60
2022-11-15T05:25:24.287Z,8.60
2022-11-15T05:27:51.558Z,8.60
2022-11-15T05:30:18.702Z,8.60
2022-11-15T05:32:46.363Z,8.60
2022-11-15T05:35:18.779Z,8.60
2022-11-15T05:37:46.288Z,8.60
2022-11-15T05:40:14.629Z,8.60
2022-11-15T05:42:42.058Z,8.60
2022-11-15T05:45:10.297Z,8.60
2022-11-15T05:47:39.263Z,8.60
2022-11-15T05:50:07.441Z,8.50
2022-11-15T05:52:38.032Z,8.50
2022-11-15T05:55:07.850Z,8.50
2022-11-15T05:57:36.442Z,8.60
2022-11-15T06:00:05.310Z,8.60
2022-11-15T06:02:32.499Z,8.60
2022-11-15T06:04:59.426Z,8.60
2022-11-15T06:07:26.587Z,8.60
2022-11-15T06:09:53.588Z,8.50
2022-11-15T06:12:20.691Z,8.50
2022-11-15T06:14:48.886Z,8.50
2022-11-15T06:17:16.194Z,8.40
2022-11-15T06:19:43.023Z,8.50
2022-11-15T06:22:10.831Z,8.40
2022-11-15T06:24:37.690Z,8.40
2022-11-15T06:27:04.940Z,8.40
2022-11-15T06:29:31.794Z,8.30
2022-11-15T06:32:00.464Z,8.30
2022-11-15T06:34:27.497Z,8.30
2022-11-15T06:36:54.811Z,8.30
2022-11-15T06:39:21.679Z,8.30
2022-11-15T06:41:48.896Z,8.30
2022-11-15T06:44:15.910Z,8.30
2022-11-15T06:46:43.078Z,8.30
2022-11-15T06:49:11.251Z,8.30
2022-11-15T06:51:38.470Z,8.40
2022-11-15T06:54:05.620Z,8.30
2022-11-15T06:56:32.822Z,8.30
2022-11-15T06:58:59.719Z,8.30
2022-11-15T07:01:27.093Z,8.30
2022-11-15T07:03:53.977Z,8.30
2022-11-15T07:06:22.751Z,8.30
2022-11-15T07:08:49.646Z,8.30
2022-11-15T07:11:16.593Z,8.30
2022-11-15T07:13:43.454Z,8.20
2022-11-15T07:16:11.651Z,8.20
2022-11-15T07:18:39.877Z,8.20
2022-11-15T07:21:09.263Z,8.20
2022-11-15T07:23:39.221Z,8.20
2022-11-15T07:26:06.544Z,8.20
2022-11-15T07:28:33.843Z,8.30
2022-11-15T07:31:03.888Z,8.30
2022-11-15T07:33:31.395Z,8.30
2022-11-15T07:36:00.750Z,8.30
2022-11-15T07:38:27.987Z,8.40
2022-11-15T07:40:59.182Z,8.40
2022-11-15T07:43:26.528Z,8.40
2022-11-15T07:45:58.607Z,8.50
2022-11-15T07:48:26.111Z,8.60
2022-11-15T07:50:59.462Z,8.60
2022-11-15T07:53:26.428Z,8.70
2022-11-15T07:55:54.467Z,8.70
2022-11-15T07:58:22.745Z,8.90
2022-11-15T08:00:49.655Z,8.80
2022-11-15T08:03:18.330Z,8.90
2022-11-15T08:05:51.399Z,9.00
2022-11-15T08:08:18.419Z,9.00
2022-11-15T08:10:45.405Z,9.10
2022-11-15T08:13:13.426Z,9.20
2022-11-15T08:15:42.023Z,9.30
2022-11-15T08:18:12.829Z,9.40
2022-11-15T08:20:40.202Z,9.50
2022-11-15T08:23:09.212Z,9.60
2022-11-15T08:25:36.817Z,9.70
2022-11-15T08:28:06.037Z,9.70
2022-11-15T08:30:37.319Z,9.70
2022-11-15T08:33:06.093Z,9.70
2022-11-15T08:35:33.041Z,9.80
2022-11-15T08:38:00.007Z,9.90
2022-11-15T08:40:27.968Z,9.90
2022-11-15T08:42:55.276Z,10.00
2022-11-15T08:45:22.367Z,10.10
2022-11-15T08:47:53.932Z,10.10
2022-11-15T08:50:22.877Z,10.20
2022-11-15T08:52:50.031Z,10.20
2022-11-15T08:55:17.796Z,10.20
2022-11-15T08:57:45.577Z,10.20
2022-11-15T09:00:14.233Z,10.20
2022-11-15T09:02:41.437Z,10.20
2022-11-15T09:05:09.348Z,10.20
2022-11-15T09:07:37.879Z,10.20
2022-11-15T09:10:05.458Z,10.30
2022-11-15T09:12:32.792Z,10.30
2022-11-15T09:14:59.630Z,10.30
2022-11-15T09:17:26.979Z,10.30
2022-11-15T09:19:53.879Z,10.20
2022-11-15T09:22:21.094Z,10.30
2022-11-15T09:24:49.307Z,10.20
2022-11-15T09:27:16.502Z,10.20
2022-11-15T09:29:43.348Z,10.20
2022-11-15T09:32:10.470Z,10.20
2022-11-15T09:34:37.409Z,10.20
2022-11-15T09:37:04.313Z,10.20
2022-11-15T09:39:32.083Z,10.30
2022-11-15T09:42:26.900Z,10.40
2022-11-15T09:45:05.131Z,10.50
2022-11-15T09:47:50.602Z,10.60
2022-11-15T09:50:30.183Z,10.70
2022-11-15T09:52:57.492Z,10.80
2022-11-15T09:55:36.160Z,10.90
2022-11-15T09:58:16.796Z,11.10
2022-11-15T10:00:51.921Z,11.40
2022-11-15T10:03:25.183Z,11.70
2022-11-15T10:05:56.308Z,12.30
2022-11-15T10:08:57.772Z,13.00
2022-11-15T10:11:43.490Z,13.70
2022-11-15T10:14:16.731Z,14.40
2022-11-15T10:17:22.846Z,14.90
2022-11-15T10:20:05.326Z,15.40
2022-11-15T10:22:39.641Z,15.40
2022-11-15T10:25:21.683Z,15.60
2022-11-15T10:27:55.504Z,15.80
2022-11-15T10:30:24.821Z,16.10
2022-11-15T10:32:51.761Z,16.10
2022-11-15T10:35:26.444Z,16.30
2022-11-15T10:37:56.344Z,16.40
2022-11-15T10:40:25.032Z,16.40
2022-11-15T10:43:07.070Z,16.20
2022-11-15T10:45:35.671Z,15.70
2022-11-15T10:48:25.009Z,15.30
2022-11-15T10:50:54.387Z,15.20
2022-11-15T10:53:31.943Z,15.00
2022-11-15T10:56:02.601Z,14.80
2022-11-15T10:58:37.811Z,14.50
2022-11-15T11:01:15.599Z,14.30
2022-11-15T11:03:44.334Z,14.30
2022-11-15T11:06:14.114Z,14.30
2022-11-15T11:08:41.946Z,14.30
2022-11-15T11:11:09.660Z,14.30
2022-11-15T11:13:39.167Z,14.20
2022-11-15T11:16:42.144Z,14.30
2022-11-15T11:19:32.440Z,14.40
2022-11-15T11:22:06.723Z,14.40
2022-11-15T11:24:38.834Z,14.40
2022-11-15T11:27:20.130Z,14.40
2022-11-15T11:30:02.292Z,14.30
2022-11-15T11:33:08.370Z,14.30
2022-11-15T11:35:44.758Z,14.40
2022-11-15T11:38:35.491Z,14.30
2022-11-15T11:41:14.260Z,14.20
2022-11-15T11:43:54.029Z,14.00
2022-11-15T11:46:55.426Z,13.80
2022-11-15T11:49:30.200Z,13.60
2022-11-15T11:52:03.674Z,13.60
2022-11-15T11:54:37.901Z,13.60
2022-11-15T11:57:11.452Z,13.60
2022-11-15T11:59:44.658Z,13.60
2022-11-15T12:02:18.389Z,13.60
2022-11-15T12:04:52.478Z,13.40
2022-11-15T12:07:25.375Z,13.40
2022-11-15T12:09:59.203Z,13.50
2022-11-15T12:12:33.089Z,13.60
2022-11-15T12:15:04.526Z,13.80
2022-11-15T12:17:33.063Z,14.00
2022-11-15T12:20:04.840Z,14.20
2022-11-15T12:22:39.899Z,14.20
2022-11-15T12:25:15.873Z,14.10
2022-11-15T12:27:46.138Z,14.00
2022-11-15T12:30:16.063Z,14.00
2022-11-15T12:32:53.707Z,13.90
2022-11-15T12:35:34.712Z,13.90
2022-11-15T12:38:02.396Z,13.90
2022-11-15T12:40:32.619Z,14.00
2022-11-15T12:43:31.413Z,14.00
2022-11-15T12:46:04.552Z,14.00
2022-11-15T12:48:59.724Z,14.00
2022-11-15T12:52:03.213Z,13.80
2022-11-15T12:54:57.672Z,13.80
2022-11-15T12:57:42.303Z,13.80
2022-11-15T13:00:45.974Z,13.70
2022-11-15T13:03:27.880Z,13.60
2022-11-15T13:06:13.700Z,13.60
2022-11-15T13:08:52.086Z,13.60
2022-11-15T13:11:47.421Z,13.50
2022-11-15T13:14:41.013Z,13.50
2022-11-15T13:17:24.421Z,13.50
2022-11-15T13:19:59.599Z,13.40
2022-11-15T13:22:45.665Z,13.40
2022-11-15T13:25:20.113Z,13.40
2022-11-15T13:27:49.982Z,13.40
2022-11-15T13:30:21.726Z,13.40
2022-11-15T13:32:48.957Z,13.40
2022-11-15T13:35:22.032Z,13.40
2022-11-15T13:37:49.682Z,13.30
2022-11-15T13:40:33.959Z,13.30
2022-11-15T13:43:28.617Z,13.30
2022-11-15T13:46:13.079Z,13.30
2022-11-15T13:48:40.589Z,13.30
2022-11-15T13:51:15.307Z,13.30
2022-11-15T13:53:47.516Z,13.20
2022-11-15T13:56:15.692Z,13.20
2022-11-15T13:58:44.217Z,13.20
2022-11-15T14:01:18.862Z,13.10
2022-11-15T14:03:54.592Z,13.10
2022-11-15T14:06:24.547Z,13.10
2022-11-15T14:09:17.364Z,13.10
2022-11-15T14:11:55.667Z,13.10
2022-11-15T14:14:24.961Z,13.00
2022-11-15T14:16:54.865Z,13.00
2022-11-15T14:19:37.347Z,13.00
2022-11-15T14:22:29.584Z,13.00
2022-11-15T14:25:14.870Z,13.00
2022-11-15T14:27:43.144Z,13.00
2022-11-15T14:30:16.452Z,12.90
2022-11-15T14:32:46.828Z,12.90
2022-11-15T14:35:16.534Z,12.90
2022-11-15T14:37:43.998Z,12.90
2022-11-15T14:40:14.503Z,12.90
2022-11-15T14:42:41.748Z,12.90
2022-11-15T14:45:13.529Z,12.90
2022-11-15T14:47:42.268Z,12.90
2022-11-15T14:50:12.923Z,12.90
2022-11-15T14:52:40.452Z,12.80
2022-11-15T14:55:16.678Z,12.80
2022-11-15T14:57:43.708Z,12.80
2022-11-15T15:00:11.850Z,12.80
2022-11-15T15:02:38.950Z,12.70
2022-11-15T15:05:16.023Z,12.70
2022-11-15T15:07:43.373Z,12.70
2022-11-15T15:10:38.499Z,12.60
2022-11-15T15:12:58.007Z,12.60
2022-11-15T15:15:27.858Z,12.50
2022-11-15T15:17:54.735Z,12.50
2022-11-15T15:20:23.260Z,12.50
2022-11-15T15:22:50.166Z,12.50
2022-11-15T15:25:28.014Z,12.40
2022-11-15T15:27:55.414Z,12.40
2022-11-15T15:30:22.918Z,12.30
2022-11-15T15:32:49.902Z,12.30
2022-11-15T15:35:18.641Z,12.30
2022-11-15T15:37:48.152Z,12.30
2022-11-15T15:40:17.908Z,12.30
2022-11-15T15:42:45.282Z,12.30
2022-11-15T15:45:13.022Z,12.20
2022-11-15T15:47:40.172Z,12.20
2022-11-15T15:50:21.318Z,12.20
2022-11-15T15:52:50.190Z,12.20
2022-11-15T15:55:17.459Z,12.10
2022-11-15T15:57:44.454Z,12.10
2022-11-15T16:00:12.599Z,12.10
2022-11-15T16:02:40.775Z,12.20
2022-11-15T16:05:08.869Z,12.10
2022-11-15T16:07:36.255Z,12.10
2022-11-15T16:10:18.187Z,12.10
2022-11-15T16:12:45.740Z,12.10
2022-11-15T16:15:13.040Z,12.10
2022-11-15T16:17:44.699Z,12.10
2022-11-15T16:20:27.734Z,12.10
2022-11-15T16:22:54.557Z,12.10
2022-11-15T16:25:23.291Z,12.10
2022-11-15T16:27:50.156Z,12.10
2022-11-15T16:30:19.915Z,12.00
2022-11-15T16:32:47.099Z,12.00
2022-11-15T16:35:16.105Z,12.10
2022-11-15T16:37:44.946Z,12.10
2022-11-15T16:40:27.833Z,12.10
2022-11-15T16:42:56.576Z,12.10
2022-11-15T16:45:24.216Z,12.00
2022-11-15T16:47:51.100Z,12.00
2022-11-15T16:50:26.371Z,12.00
2022-11-15T16:52:54.183Z,12.00
2022-11-15T16:55:22.319Z,12.00
2022-11-15T16:57:49.451Z,12.00
2022-11-15T17:00:19.737Z,12.00
2022-11-15T17:02:48.630Z,12.10
2022-11-15T17:05:20.084Z,12.10
2022-11-15T17:07:54.095Z,12.10
2022-11-15T17:10:22.184Z,12.10
2022-11-15T17:12:50.241Z,12.10
2022-11-15T17:15:19.514Z,12.10
2022-11-15T17:17:51.880Z,12.10
2022-11-15T17:20:20.382Z,12.10
2022-11-15T17:22:47.477Z,12.10
2022-11-15T17:25:14.713Z,12.00
2022-11-15T17:27:41.713Z,12.00
2022-11-15T17:30:12.327Z,12.00
2022-11-15T17:32:40.745Z,12.00
2022-11-15T17:35:15.057Z,12.00
2022-11-15T17:37:42.864Z,11.90
2022-11-15T17:40:11.613Z,11.90
2022-11-15T17:42:41.151Z,11.90
2022-11-15T17:45:11.262Z,12.00
2022-11-15T17:47:38.336Z,12.00
2022-11-15T17:50:06.949Z,12.00
2022-11-15T17:52:34.248Z,12.00
2022-11-15T17:55:01.496Z,12.10
2022-11-15T17:57:28.353Z,12.20
2022-11-15T17:59:55.404Z,12.20
2022-11-15T18:02:22.287Z,12.20
2022-11-15T18:04:49.502Z,12.20
2022-11-15T18:07:20.370Z,12.20
2022-11-15T18:09:47.616Z,12.20
2022-11-15T18:12:14.431Z,12.30
2022-11-15T18:14:41.767Z,12.20
2022-11-15T18:17:08.661Z,12.20
2022-11-15T18:19:36.682Z,12.20
2022-11-15T18:22:05.444Z,12.20
2022-11-15T18:24:35.363Z,12.20
2022-11-15T18:27:04.272Z,12.30
2022-11-15T18:29:32.713Z,12.30
2022-11-15T18:31:59.746Z,12.30
2022-11-15T18:34:33.596Z,12.30
2022-11-15T18:37:00.865Z,12.30
2022-11-15T18:39:27.844Z,12.40
2022-11-15T18:41:56.042Z,12.30
2022-11-15T18:44:22.916Z,12.40
2022-11-15T18:46:50.942Z,12.40
2022-11-15T18:49:19.672Z,12.40
2022-11-15T18:51:46.866Z,12.40
2022-11-15T18:54:15.439Z,12.40
2022-11-15T18:56:44.534Z,12.40
2022-11-15T18:59:13.651Z,12.30
2022-11-15T19:01:42.313Z,12.40
2022-11-15T19:04:11.392Z,12.40
2022-11-15T19:06:39.888Z,12.40
2022-11-15T19:09:08.491Z,12.40
2022-11-15T19:11:37.052Z,12.40
2022-11-15T19:14:06.671Z,12.60
2022-11-15T19:16:36.589Z,12.40
2022-11-15T19:19:06.512Z,12.40
2022-11-15T19:21:34.163Z,12.40
2022-11-15T19:24:01.974Z,12.40
2022-11-15T19:26:30.026Z,12.40
2022-11-15T19:28:59.313Z,12.50
2022-11-15T19:31:27.962Z,12.50
2022-11-15T19:33:58.301Z,12.50
2022-11-15T19:36:26.975Z,12.40
2022-11-15T19:38:54.457Z,12.30
2022-11-15T19:41:22.755Z,12.30
2022-11-15T19:43:53.235Z,12.30
2022-11-15T19:46:21.861Z,12.40
2022-11-15T19:48:49.916Z,12.30
2022-11-15T19:51:21.401Z,12.50
2022-11-15T19:53:48.894Z,12.30
2022-11-15T19:56:17.887Z,12.30
2022-11-15T19:58:46.723Z,12.40
2022-11-15T20:01:17.876Z,12.40
2022-11-15T20:03:45.989Z,12.40
2022-11-15T20:06:18.200Z,12.40
2022-11-15T20:08:47.844Z,12.50
2022-11-15T20:11:15.733Z,12.50
2022-11-15T20:13:43.546Z,12.50
2022-11-15T20:16:15.772Z,12.40
2022-11-15T20:18:42.894Z,12.40
2022-11-15T20:21:10.607Z,12.50
2022-11-15T20:23:38.960Z,12.50
2022-11-15T20:26:09.398Z,12.50
2022-11-15T20:28:38.072Z,12.50
2022-11-15T20:31:05.455Z,12.50
2022-11-15T20:33:32.418Z,12.50
2022-11-15T20:36:03.575Z,12.50
2022-11-15T20:38:30.659Z,12.50
2022-11-15T20:41:00.351Z,12.50
2022-11-15T20:43:29.398Z,12.50
2022-11-15T20:45:56.661Z,12.50
2022-11-15T20:48:23.880Z,12.50
2022-11-15T20:50:50.755Z,12.50
2022-11-15T20:53:19.612Z,12.40
2022-11-15T20:55:48.303Z,12.40
2022-11-15T20:58:16.370Z,12.50
2022-11-15T21:00:45.970Z,12.40
2022-11-15T21:03:13.942Z,12.40
2022-11-15T21:05:42.941Z,12.40
2022-11-15T21:08:11.092Z,12.40
2022-11-15T21:10:57.581Z,12.30
2022-11-15T21:13:24.665Z,12.30
2022-11-15T21:15:55.559Z,12.20
2022-11-15T21:18:22.455Z,12.20
2022-11-15T21:20:49.696Z,12.20
2022-11-15T21:23:16.580Z,12.30
2022-11-15T21:25:48.636Z,12.10
2022-11-15T21:28:15.495Z,12.10
2022-11-15T21:30:42.657Z,12.10
2022-11-15T21:33:10.881Z,12.10
2022-11-15T21:35:37.784Z,12.10
2022-11-15T21:38:04.607Z,12.00
2022-11-15T21:40:31.925Z,12.00
2022-11-15T21:42:58.793Z,12.00
2022-11-15T21:45:26.014Z,11.90
2022-11-15T21:47:53.002Z,12.00
2022-11-15T21:50:21.416Z,12.10
2022-11-15T21:52:48.265Z,12.00
2022-11-15T21:55:15.403Z,12.00
2022-11-15T21:57:42.272Z,12.00
2022-11-15T22:00:28.573Z,12.00
2022-11-15T22:02:55.430Z,11.90
2022-11-15T22:05:23.986Z,11.90
2022-11-15T22:07:50.848Z,11.90
2022-11-15T22:10:18.410Z,11.90
2022-11-15T22:12:45.251Z,11.90
2022-11-15T22:15:12.092Z,11.80
2022-11-15T22:17:57.363Z,11.90
2022-11-15T22:23:13.067Z,11.80
2022-11-15T22:25:40.261Z,11.80
2022-11-15T22:28:07.186Z,11.70
2022-11-15T22:30:34.086Z,11.70
2022-11-15T22:33:00.999Z,11.60
2022-11-15T22:35:29.645Z,11.60
2022-11-15T22:37:56.529Z,11.60
2022-11-15T22:40:23.753Z,11.50
2022-11-15T22:42:50.671Z,11.50
2022-11-15T22:45:18.131Z,11.50
2022-11-15T22:47:45.050Z,11.50
2022-11-15T22:50:12.260Z,11.50
2022-11-15T22:52:40.722Z,11.50
2022-11-15T22:55:09.238Z,11.50
2022-11-15T22:57:38.206Z,11.50
2022-11-15T23:00:09.514Z,11.50
2022-11-15T23:02:36.608Z,11.50
2022-11-15T23:05:05.487Z,11.50
2022-11-15T23:07:33.730Z,11.50
2022-11-15T23:10:20.579Z,11.50
2022-11-15T23:13:06.599Z,11.60
2022-11-15T23:15:52.078Z,11.50
2022-11-15T23:18:19.443Z,11.50
2022-11-15T23:20:46.959Z,11.50
2022-11-15T23:23:14.502Z,11.40
2022-11-15T23:25:43.110Z,11.30
2022-11-15T23:28:10.036Z,11.30
2022-11-15T23:30:56.851Z,11.30
2022-11-15T23:33:42.707Z,11.30
2022-11-15T23:36:09.624Z,11.20
2022-11-15T23:38:37.861Z,11.10
2022-11-15T23:41:06.691Z,11.10
2022-11-15T23:43:33.964Z,11.10
2022-11-15T23:46:01.837Z,11.10
2022-11-15T23:48:29.655Z,11.00
2022-11-15T23:50:56.641Z,11.00
2022-11-15T23:53:23.939Z,11.00
2022-11-15T23:55:59.398Z,11.00
2022-11-15T23:58:27.992Z,11.00
